createdAt,value
2017-09-19T00:00:22.691Z,0
2017-09-19T00:01:23.656Z,0
2017-09-19T00:02:23.231Z,0
2017-09-19T00:03:22.920Z,0
2017-09-19T00:04:23.002Z,0
2017-09-19T00:05:23.507Z,0
2017-09-19T00:06:23.101Z,0
2017-09-19T00:07:23.446Z,0
2017-09-19T00:08:22.667Z,0
2017-09-19T00:09:23.058Z,0
2017-09-19T00:10:22.920Z,0
2017-09-19T00:11:23.093Z,0
2017-09-19T00:12:23.026Z,0
2017-09-19T00:13:22.599Z,0
2017-09-19T00:14:22.616Z,0
2017-09-19T00:15:22.997Z,0
2017-09-19T00:16:23.631Z,0
2017-09-19T00:17:22.835Z,0
2017-09-19T00:18:23.280Z,0
2017-09-19T00:19:23.180Z,0
2017-09-19T00:20:23.454Z,0
2017-09-19T00:21:22.794Z,0
2017-09-19T00:22:23.161Z,0
2017-09-19T00:23:22.826Z,0
2017-09-19T00:24:22.813Z,0
2017-09-19T00:25:22.628Z,0
2017-09-19T00:26:22.927Z,0
2017-09-19T00:27:22.900Z,0
2017-09-19T00:28:22.905Z,0
2017-09-19T00:29:22.588Z,0
2017-09-19T00:30:22.854Z,0
2017-09-19T00:31:22.852Z,0
2017-09-19T00:32:22.443Z,0
2017-09-19T00:33:22.718Z,0
2017-09-19T00:34:22.496Z,0
2017-09-19T00:35:22.816Z,0
2017-09-19T00:36:22.771Z,0
2017-09-19T00:37:22.444Z,0
2017-09-19T00:38:22.097Z,0
2017-09-19T00:39:22.755Z,0
2017-09-19T00:40:22.411Z,0
2017-09-19T00:41:22.405Z,0
2017-09-19T00:42:22.395Z,0
2017-09-19T00:43:22.397Z,0
2017-09-19T00:44:22.672Z,0
2017-09-19T00:45:22.657Z,0
2017-09-19T00:46:21.985Z,0
2017-09-19T00:47:22.337Z,0
2017-09-19T00:48:22.632Z,0
2017-09-19T00:49:21.957Z,0
2017-09-19T00:50:22.925Z,0
2017-09-19T00:51:22.259Z,0
2017-09-19T00:52:22.923Z,0
2017-09-19T00:53:22.222Z,0
2017-09-19T00:54:22.221Z,0
2017-09-19T00:55:22.195Z,0
2017-09-19T00:56:22.187Z,0
2017-09-19T00:57:22.198Z,0
2017-09-19T00:58:23.152Z,0
2017-09-19T00:59:22.198Z,0
2017-09-19T01:00:22.134Z,0
2017-09-19T01:01:22.124Z,0
2017-09-19T01:02:21.814Z,0
2017-09-19T01:03:22.435Z,0
2017-09-19T01:04:21.777Z,0
2017-09-19T01:05:22.069Z,0
2017-09-19T01:06:22.051Z,0
2017-09-19T01:07:22.387Z,0
2017-09-19T01:08:22.039Z,0
2017-09-19T01:09:22.332Z,0
2017-09-19T01:10:21.999Z,0
2017-09-19T01:11:21.995Z,0
2017-09-19T01:12:22.312Z,0
2017-09-19T01:13:22.328Z,0
2017-09-19T01:14:22.300Z,0
2017-09-19T01:15:21.929Z,0
2017-09-19T01:16:21.913Z,0
2017-09-19T01:17:21.576Z,0
2017-09-19T01:18:22.216Z,0
2017-09-19T01:19:21.891Z,0
2017-09-19T01:20:22.193Z,0
2017-09-19T01:21:21.853Z,0
2017-09-19T01:22:22.185Z,0
2017-09-19T01:23:22.161Z,0
2017-09-19T01:24:22.474Z,0
2017-09-19T01:25:21.802Z,0
2017-09-19T01:26:21.463Z,0
2017-09-19T01:27:21.437Z,0
2017-09-19T01:28:21.781Z,0
2017-09-19T01:29:21.762Z,0
2017-09-19T01:30:21.399Z,0
2017-09-19T01:31:22.053Z,0
2017-09-19T01:32:21.725Z,0
2017-09-19T01:33:21.726Z,0
2017-09-19T01:34:21.344Z,0
2017-09-19T01:35:22.319Z,0
2017-09-19T01:36:21.330Z,0
2017-09-19T01:37:21.652Z,0
2017-09-19T01:38:21.618Z,0
2017-09-19T01:39:21.935Z,0
2017-09-19T01:40:21.603Z,0
2017-09-19T01:41:21.614Z,0
2017-09-19T01:42:21.579Z,0
2017-09-19T01:43:22.234Z,0
2017-09-19T01:44:21.547Z,0
2017-09-19T01:45:21.526Z,0
2017-09-19T01:46:21.879Z,0
2017-09-19T01:47:22.185Z,0
2017-09-19T01:48:21.159Z,0
2017-09-19T01:49:21.810Z,0
2017-09-19T01:50:21.139Z,0
2017-09-19T01:51:21.143Z,0
2017-09-19T01:52:21.440Z,0
2017-09-19T01:53:29.712Z,0
2017-09-19T01:54:21.747Z,0
2017-09-19T01:55:21.066Z,0
2017-09-19T01:56:21.379Z,0
2017-09-19T01:57:21.434Z,0
2017-09-19T01:58:21.714Z,0
2017-09-19T01:59:21.995Z,0
2017-09-19T02:00:21.335Z,0
2017-09-19T02:01:20.994Z,0
2017-09-19T02:02:21.957Z,0
2017-09-19T02:03:20.957Z,0
2017-09-19T02:04:21.270Z,0
2017-09-19T02:05:21.260Z,0
2017-09-19T02:06:21.237Z,0
2017-09-19T02:07:20.931Z,0
2017-09-19T02:08:21.548Z,0
2017-09-19T02:09:21.199Z,0
2017-09-19T02:10:21.192Z,0
2017-09-19T02:11:21.826Z,0
2017-09-19T02:12:21.179Z,0
2017-09-19T02:13:21.827Z,0
2017-09-19T02:14:21.797Z,0
2017-09-19T02:15:20.813Z,0
2017-09-19T02:16:21.789Z,0
2017-09-19T02:17:21.451Z,0
2017-09-19T02:18:21.426Z,0
2017-09-19T02:19:21.075Z,0
2017-09-19T02:20:21.383Z,0
2017-09-19T02:21:21.058Z,0
2017-09-19T02:22:21.375Z,0
2017-09-19T02:23:21.701Z,0
2017-09-19T02:24:21.012Z,0
2017-09-19T02:25:20.999Z,0
2017-09-19T02:26:20.964Z,0
2017-09-19T02:27:21.295Z,0
2017-09-19T02:28:21.299Z,0
2017-09-19T02:29:20.952Z,0
2017-09-19T02:30:21.586Z,0
2017-09-19T02:31:20.602Z,0
2017-09-19T02:32:21.222Z,0
2017-09-19T02:33:21.227Z,0
2017-09-19T02:34:20.892Z,0
2017-09-19T02:35:21.196Z,0
2017-09-19T02:36:20.855Z,0
2017-09-19T02:37:21.158Z,0
2017-09-19T02:38:20.494Z,0
2017-09-19T02:39:21.134Z,0
2017-09-19T02:40:21.108Z,0
2017-09-19T02:41:21.138Z,0
2017-09-19T02:42:20.419Z,0
2017-09-19T02:43:20.778Z,0
2017-09-19T02:44:21.049Z,0
2017-09-19T02:45:20.735Z,0
2017-09-19T02:46:20.373Z,0
2017-09-19T02:47:22.099Z,0
2017-09-19T02:48:20.352Z,0
2017-09-19T02:49:20.660Z,0
2017-09-19T02:50:20.332Z,0
2017-09-19T02:51:20.955Z,0
2017-09-19T02:52:20.642Z,0
2017-09-19T02:53:20.605Z,0
2017-09-19T02:54:20.924Z,0
2017-09-19T02:55:20.569Z,0
2017-09-19T02:56:20.892Z,0
2017-09-19T02:57:20.544Z,0
2017-09-19T02:58:21.189Z,0
2017-09-19T02:59:20.847Z,0
2017-09-19T03:00:20.513Z,0
2017-09-19T03:01:20.183Z,0
2017-09-19T03:02:20.482Z,0
2017-09-19T03:03:20.483Z,0
2017-09-19T03:04:21.113Z,0
2017-09-19T03:05:20.109Z,0
2017-09-19T03:06:20.420Z,0
2017-09-19T03:07:20.412Z,0
2017-09-19T03:08:20.099Z,0
2017-09-19T03:09:20.382Z,0
2017-09-19T03:10:20.372Z,0
2017-09-19T03:11:20.038Z,0
2017-09-19T03:12:20.341Z,0
2017-09-19T03:13:20.002Z,0
2017-09-19T03:14:20.648Z,0
2017-09-19T03:15:20.870Z,0
2017-09-19T03:16:20.290Z,0
2017-09-19T03:17:20.953Z,0
2017-09-19T03:18:20.297Z,0
2017-09-19T03:19:20.248Z,0
2017-09-19T03:20:20.254Z,0
2017-09-19T03:21:20.025Z,0
2017-09-19T03:22:20.560Z,0
2017-09-19T03:23:20.256Z,0
2017-09-19T03:24:19.851Z,0
2017-09-19T03:25:20.187Z,0
2017-09-19T03:26:20.480Z,0
2017-09-19T03:27:19.813Z,0
2017-09-19T03:28:20.131Z,0
2017-09-19T03:29:19.786Z,0
2017-09-19T03:30:20.778Z,0
2017-09-19T03:31:19.787Z,0
2017-09-19T03:32:20.401Z,0
2017-09-19T03:33:20.063Z,0
2017-09-19T03:34:20.048Z,0
2017-09-19T03:35:20.071Z,0
2017-09-19T03:36:20.034Z,0
2017-09-19T03:37:20.349Z,0
2017-09-19T03:38:19.680Z,0
2017-09-19T03:39:20.336Z,0
2017-09-19T03:40:20.297Z,0
2017-09-19T03:41:19.952Z,0
2017-09-19T03:42:19.645Z,0
2017-09-19T03:43:19.927Z,0
2017-09-19T03:44:19.595Z,0
2017-09-19T03:45:19.931Z,0
2017-09-19T03:46:20.247Z,0
2017-09-19T03:47:19.872Z,0
2017-09-19T03:48:19.530Z,0
2017-09-19T03:49:19.844Z,0
2017-09-19T03:50:20.177Z,0
2017-09-19T03:51:20.173Z,0
2017-09-19T03:52:20.148Z,0
2017-09-19T03:53:20.134Z,0
2017-09-19T03:54:19.815Z,0
2017-09-19T03:55:19.783Z,0
2017-09-19T03:56:20.077Z,0
2017-09-19T03:57:19.739Z,0
2017-09-19T03:58:19.393Z,0
2017-09-19T03:59:19.714Z,0
2017-09-19T04:00:20.030Z,0
2017-09-19T04:01:20.026Z,0
2017-09-19T04:02:19.699Z,0
2017-09-19T04:03:19.672Z,0
2017-09-19T04:04:19.323Z,0
2017-09-19T04:05:19.641Z,0
2017-09-19T04:06:19.661Z,0
2017-09-19T04:07:20.160Z,0
2017-09-19T04:08:19.584Z,0
2017-09-19T04:09:19.610Z,0
2017-09-19T04:10:19.887Z,0
2017-09-19T04:11:19.212Z,0
2017-09-19T04:12:20.526Z,0
2017-09-19T04:13:19.527Z,0
2017-09-19T04:14:19.172Z,0
2017-09-19T04:15:19.493Z,0
2017-09-19T04:16:19.498Z,0
2017-09-19T04:17:19.468Z,0
2017-09-19T04:18:19.442Z,0
2017-09-19T04:19:19.107Z,0
2017-09-19T04:20:19.787Z,0
2017-09-19T04:21:19.423Z,0
2017-09-19T04:22:19.061Z,0
2017-09-19T04:23:19.718Z,0
2017-09-19T04:24:19.363Z,0
2017-09-19T04:25:19.350Z,0
2017-09-19T04:26:19.662Z,0
2017-09-19T04:27:19.657Z,0
2017-09-19T04:28:19.971Z,0
2017-09-19T04:29:19.649Z,0
2017-09-19T04:30:19.277Z,0
2017-09-19T04:31:19.287Z,0
2017-09-19T04:32:19.245Z,0
2017-09-19T04:33:18.912Z,0
2017-09-19T04:34:18.916Z,0
2017-09-19T04:35:18.905Z,0
2017-09-19T04:36:19.543Z,0
2017-09-19T04:37:19.521Z,0
2017-09-19T04:38:19.173Z,0
2017-09-19T04:39:19.485Z,0
2017-09-19T04:40:19.161Z,0
2017-09-19T04:41:19.461Z,0
2017-09-19T04:42:19.463Z,0
2017-09-19T04:43:19.453Z,0
2017-09-19T04:44:19.097Z,0
2017-09-19T04:45:19.722Z,0
2017-09-19T04:46:19.055Z,0
2017-09-19T04:47:18.708Z,0
2017-09-19T04:48:19.024Z,0
2017-09-19T04:49:18.687Z,5
2017-09-19T04:50:18.672Z,5
2017-09-19T04:51:18.988Z,5
2017-09-19T04:52:18.642Z,5
2017-09-19T04:53:19.286Z,5
2017-09-19T04:54:18.978Z,5
2017-09-19T04:55:19.266Z,5
2017-09-19T04:56:18.914Z,10
2017-09-19T04:57:19.228Z,10
2017-09-19T04:58:18.885Z,10
2017-09-19T04:59:19.221Z,10
2017-09-19T05:00:18.860Z,10
2017-09-19T05:01:19.517Z,15
2017-09-19T05:02:18.874Z,15
2017-09-19T05:03:18.507Z,15
2017-09-19T05:04:19.135Z,15
2017-09-19T05:05:19.125Z,20
2017-09-19T05:06:19.101Z,20
2017-09-19T05:07:19.750Z,20
2017-09-19T05:08:19.420Z,20
2017-09-19T05:09:19.066Z,20
2017-09-19T05:10:18.717Z,25
2017-09-19T05:11:18.722Z,25
2017-09-19T05:12:18.363Z,25
2017-09-19T05:13:19.013Z,25
2017-09-19T05:14:18.664Z,25
2017-09-19T05:15:18.973Z,30
2017-09-19T05:16:18.306Z,30
2017-09-19T05:17:18.637Z,30
2017-09-19T05:18:18.948Z,35
2017-09-19T05:19:19.260Z,35
2017-09-19T05:20:18.576Z,35
2017-09-19T05:21:19.234Z,40
2017-09-19T05:22:18.555Z,40
2017-09-19T05:23:18.556Z,40
2017-09-19T05:24:18.875Z,45
2017-09-19T05:25:18.526Z,45
2017-09-19T05:26:18.497Z,50
2017-09-19T05:27:18.484Z,50
2017-09-19T05:28:18.497Z,50
2017-09-19T05:29:18.783Z,55
2017-09-19T05:30:18.113Z,55
2017-09-19T05:31:18.115Z,55
2017-09-19T05:32:18.088Z,55
2017-09-19T05:33:18.731Z,60
2017-09-19T05:34:18.718Z,65
2017-09-19T05:35:18.379Z,65
2017-09-19T05:36:18.704Z,70
2017-09-19T05:37:18.014Z,75
2017-09-19T05:38:18.006Z,75
2017-09-19T05:39:18.323Z,75
2017-09-19T05:40:18.638Z,75
2017-09-19T05:41:18.938Z,80
2017-09-19T05:42:18.290Z,80
2017-09-19T05:43:18.922Z,80
2017-09-19T05:44:18.916Z,85
2017-09-19T05:45:17.904Z,85
2017-09-19T05:46:18.239Z,85
2017-09-19T05:47:18.860Z,85
2017-09-19T05:48:18.867Z,90
2017-09-19T05:49:18.504Z,90
2017-09-19T05:50:18.503Z,90
2017-09-19T05:51:18.485Z,90
2017-09-19T05:52:18.135Z,85
2017-09-19T05:53:18.453Z,85
2017-09-19T05:54:17.786Z,85
2017-09-19T05:55:18.097Z,85
2017-09-19T05:56:19.099Z,85
2017-09-19T05:57:17.740Z,90
2017-09-19T05:58:17.749Z,90
2017-09-19T05:59:17.714Z,85
2017-09-19T06:00:18.693Z,90
2017-09-19T06:01:17.686Z,85
2017-09-19T06:02:18.661Z,80
2017-09-19T06:03:18.353Z,85
2017-09-19T06:04:18.016Z,85
2017-09-19T06:05:17.636Z,85
2017-09-19T06:06:18.313Z,90
2017-09-19T06:07:17.946Z,90
2017-09-19T06:08:18.271Z,90
2017-09-19T06:09:18.296Z,85
2017-09-19T06:10:17.573Z,85
2017-09-19T06:11:17.889Z,90
2017-09-19T06:12:17.900Z,95
2017-09-19T06:13:17.544Z,100
2017-09-19T06:14:17.854Z,100
2017-09-19T06:15:17.843Z,105
2017-09-19T06:16:17.840Z,105
2017-09-19T06:17:17.488Z,100
2017-09-19T06:18:17.825Z,100
2017-09-19T06:19:17.468Z,95
2017-09-19T06:20:17.452Z,100
2017-09-19T06:21:18.108Z,110
2017-09-19T06:22:17.452Z,115
2017-09-19T06:23:18.071Z,125
2017-09-19T06:24:17.756Z,130
2017-09-19T06:25:22.780Z,140
2017-09-19T06:26:18.046Z,145
2017-09-19T06:27:17.376Z,145
2017-09-19T06:28:18.017Z,150
2017-09-19T06:29:17.672Z,150
2017-09-19T06:30:18.005Z,150
2017-09-19T06:31:17.339Z,155
2017-09-19T06:32:18.000Z,160
2017-09-19T06:33:17.956Z,160
2017-09-19T06:34:17.617Z,160
2017-09-19T06:35:17.601Z,160
2017-09-19T06:36:17.943Z,160
2017-09-19T06:37:17.608Z,160
2017-09-19T06:38:17.590Z,160
2017-09-19T06:39:17.556Z,160
2017-09-19T06:40:17.554Z,165
2017-09-19T06:41:17.858Z,170
2017-09-19T06:42:17.197Z,170
2017-09-19T06:43:17.532Z,170
2017-09-19T06:44:18.156Z,170
2017-09-19T06:45:18.147Z,170
2017-09-19T06:46:17.480Z,170
2017-09-19T06:47:18.167Z,160
2017-09-19T06:48:17.127Z,155
2017-09-19T06:49:17.441Z,160
2017-09-19T06:50:17.780Z,165
2017-09-19T06:51:17.751Z,170
2017-09-19T06:52:17.091Z,175
2017-09-19T06:53:17.411Z,180
2017-09-19T06:54:17.427Z,180
2017-09-19T06:55:17.380Z,185
2017-09-19T06:56:17.722Z,180
2017-09-19T06:57:18.022Z,170
2017-09-19T06:58:17.679Z,165
2017-09-19T06:59:17.336Z,170
2017-09-19T07:00:17.357Z,170
2017-09-19T07:01:17.317Z,170
2017-09-19T07:02:17.970Z,175
2017-09-19T07:03:17.639Z,180
2017-09-19T07:04:17.946Z,180
2017-09-19T07:05:17.634Z,190
2017-09-19T07:06:17.264Z,185
2017-09-19T07:07:17.940Z,185
2017-09-19T07:08:16.936Z,195
2017-09-19T07:09:17.901Z,200
2017-09-19T07:10:17.556Z,205
2017-09-19T07:11:17.556Z,215
2017-09-19T07:12:17.213Z,220
2017-09-19T07:13:18.226Z,220
2017-09-19T07:14:16.873Z,215
2017-09-19T07:15:17.193Z,215
2017-09-19T07:16:16.843Z,220
2017-09-19T07:17:17.182Z,215
2017-09-19T07:18:17.173Z,220
2017-09-19T07:19:17.142Z,225
2017-09-19T07:20:17.137Z,225
2017-09-19T07:21:17.127Z,225
2017-09-19T07:22:18.101Z,225
2017-09-19T07:23:17.117Z,220
2017-09-19T07:24:16.770Z,220
2017-09-19T07:25:17.091Z,225
2017-09-19T07:26:17.403Z,225
2017-09-19T07:27:16.767Z,230
2017-09-19T07:28:17.424Z,235
2017-09-19T07:29:16.731Z,240
2017-09-19T07:30:18.036Z,245
2017-09-19T07:31:17.039Z,245
2017-09-19T07:32:17.380Z,245
2017-09-19T07:33:17.020Z,250
2017-09-19T07:34:16.688Z,255
2017-09-19T07:35:17.325Z,250
2017-09-19T07:36:16.989Z,250
2017-09-19T07:37:16.677Z,250
2017-09-19T07:38:16.642Z,255
2017-09-19T07:39:16.843Z,255
2017-09-19T07:40:16.635Z,255
2017-09-19T07:41:17.284Z,260
2017-09-19T07:42:17.308Z,265
2017-09-19T07:43:17.260Z,275
2017-09-19T07:44:16.960Z,285
2017-09-19T07:45:17.312Z,295
2017-09-19T07:46:16.921Z,305
2017-09-19T07:47:16.928Z,315
2017-09-19T07:48:16.923Z,315
2017-09-19T07:49:16.917Z,305
2017-09-19T07:50:17.546Z,315
2017-09-19T07:51:16.884Z,310
2017-09-19T07:52:16.862Z,290
2017-09-19T07:53:17.527Z,275
2017-09-19T07:54:16.869Z,265
2017-09-19T07:55:17.176Z,255
2017-09-19T07:56:16.856Z,255
2017-09-19T07:57:16.841Z,255
2017-09-19T07:58:16.818Z,250
2017-09-19T07:59:16.810Z,245
2017-09-19T08:00:17.138Z,235
2017-09-19T08:01:16.820Z,225
2017-09-19T08:02:16.469Z,220
2017-09-19T08:03:16.786Z,215
2017-09-19T08:04:16.458Z,215
2017-09-19T08:05:17.504Z,205
2017-09-19T08:06:16.786Z,195
2017-09-19T08:07:16.788Z,185
2017-09-19T08:08:17.111Z,200
2017-09-19T08:09:17.076Z,185
2017-09-19T08:10:17.402Z,185
2017-09-19T08:11:17.058Z,195
2017-09-19T08:12:16.740Z,190
2017-09-19T08:13:17.042Z,195
2017-09-19T08:14:16.390Z,195
2017-09-19T08:15:16.387Z,205
2017-09-19T08:16:17.044Z,210
2017-09-19T08:17:16.364Z,225
2017-09-19T08:18:17.002Z,235
2017-09-19T08:19:16.669Z,235
2017-09-19T08:20:17.002Z,230
2017-09-19T08:21:16.999Z,220
2017-09-19T08:22:16.654Z,215
2017-09-19T08:23:16.318Z,215
2017-09-19T08:24:16.635Z,210
2017-09-19T08:25:16.628Z,210
2017-09-19T08:26:16.628Z,210
2017-09-19T08:27:16.949Z,210
2017-09-19T08:28:16.939Z,190
2017-09-19T08:29:16.935Z,190
2017-09-19T08:30:16.598Z,185
2017-09-19T08:31:17.465Z,175
2017-09-19T08:32:16.601Z,165
2017-09-19T08:33:16.928Z,155
2017-09-19T08:34:17.220Z,155
2017-09-19T08:35:17.603Z,140
2017-09-19T08:36:16.571Z,135
2017-09-19T08:37:16.889Z,135
2017-09-19T08:38:16.581Z,135
2017-09-19T08:39:16.534Z,130
2017-09-19T08:40:16.537Z,120
2017-09-19T08:41:16.198Z,130
2017-09-19T08:42:17.188Z,140
2017-09-19T08:43:16.840Z,145
2017-09-19T08:44:16.503Z,140
2017-09-19T08:45:17.198Z,140
2017-09-19T08:46:16.813Z,140
2017-09-19T08:47:16.806Z,135
2017-09-19T08:48:16.506Z,135
2017-09-19T08:49:16.468Z,135
2017-09-19T08:50:17.475Z,120
2017-09-19T08:51:16.800Z,130
2017-09-19T08:52:16.447Z,125
2017-09-19T08:53:16.460Z,125
2017-09-19T08:54:16.492Z,125
2017-09-19T08:55:16.430Z,125
2017-09-19T08:56:16.746Z,130
2017-09-19T08:57:17.629Z,145
2017-09-19T08:58:16.401Z,145
2017-09-19T08:59:17.070Z,150
2017-09-19T09:00:16.385Z,150
2017-09-19T09:01:16.379Z,135
2017-09-19T09:02:16.737Z,135
2017-09-19T09:03:16.364Z,130
2017-09-19T09:04:16.687Z,130
2017-09-19T09:05:17.040Z,130
2017-09-19T09:06:16.039Z,135
2017-09-19T09:07:16.004Z,135
2017-09-19T09:08:16.327Z,140
2017-09-19T09:09:16.322Z,140
2017-09-19T09:10:17.316Z,150
2017-09-19T09:11:16.629Z,160
2017-09-19T09:12:16.645Z,170
2017-09-19T09:13:16.625Z,180
2017-09-19T09:14:16.611Z,200
2017-09-19T09:15:15.944Z,225
2017-09-19T09:16:15.937Z,245
2017-09-19T09:17:16.271Z,260
2017-09-19T09:18:16.620Z,275
2017-09-19T09:19:15.953Z,280
2017-09-19T09:20:16.269Z,300
2017-09-19T09:21:16.242Z,290
2017-09-19T09:22:16.237Z,300
2017-09-19T09:23:16.546Z,315
2017-09-19T09:24:16.248Z,320
2017-09-19T09:25:16.735Z,310
2017-09-19T09:26:15.859Z,315
2017-09-19T09:27:16.185Z,325
2017-09-19T09:28:25.267Z,345
2017-09-19T09:29:15.836Z,335
2017-09-19T09:30:16.180Z,330
2017-09-19T09:31:16.489Z,330
2017-09-19T09:32:16.155Z,315
2017-09-19T09:33:16.136Z,285
2017-09-19T09:34:16.156Z,275
2017-09-19T09:35:16.130Z,270
2017-09-19T09:36:16.136Z,275
2017-09-19T09:37:16.463Z,295
2017-09-19T09:38:20.844Z,310
2017-09-19T09:39:16.099Z,320
2017-09-19T09:40:16.437Z,330
2017-09-19T09:41:16.091Z,335
2017-09-19T09:42:16.079Z,325
2017-09-19T09:43:16.084Z,320
2017-09-19T09:44:16.402Z,305
2017-09-19T09:45:15.750Z,290
2017-09-19T09:46:15.766Z,280
2017-09-19T09:47:16.052Z,265
2017-09-19T09:48:15.727Z,255
2017-09-19T09:49:16.035Z,250
2017-09-19T09:50:15.708Z,245
2017-09-19T09:51:16.027Z,240
2017-09-19T09:52:16.025Z,235
2017-09-19T09:53:16.013Z,235
2017-09-19T09:54:16.055Z,230
2017-09-19T09:55:16.361Z,235
2017-09-19T09:56:16.367Z,240
2017-09-19T09:57:16.336Z,240
2017-09-19T09:58:16.661Z,240
2017-09-19T09:59:15.981Z,250
2017-09-19T10:00:16.294Z,260
2017-09-19T10:01:16.292Z,265
2017-09-19T10:02:16.295Z,280
2017-09-19T10:03:15.974Z,295
2017-09-19T10:04:15.970Z,300
2017-09-19T10:05:15.942Z,310
2017-09-19T10:06:15.623Z,325
2017-09-19T10:07:15.931Z,325
2017-09-19T10:08:15.926Z,335
2017-09-19T10:09:16.573Z,345
2017-09-19T10:10:15.591Z,350
2017-09-19T10:11:16.247Z,345
2017-09-19T10:12:15.924Z,345
2017-09-19T10:13:16.243Z,340
2017-09-19T10:14:16.249Z,340
2017-09-19T10:15:15.883Z,350
2017-09-19T10:16:16.206Z,365
2017-09-19T10:17:15.873Z,370
2017-09-19T10:18:15.868Z,360
2017-09-19T10:19:16.212Z,355
2017-09-19T10:20:15.849Z,355
2017-09-19T10:21:16.199Z,355
2017-09-19T10:22:15.873Z,340
2017-09-19T10:23:15.852Z,335
2017-09-19T10:24:15.847Z,330
2017-09-19T10:25:15.491Z,315
2017-09-19T10:26:16.515Z,300
2017-09-19T10:27:15.511Z,300
2017-09-19T10:28:16.144Z,290
2017-09-19T10:29:16.163Z,280
2017-09-19T10:30:15.840Z,280
2017-09-19T10:31:16.136Z,270
2017-09-19T10:32:16.149Z,260
2017-09-19T10:33:15.846Z,260
2017-09-19T10:34:15.780Z,250
2017-09-19T10:35:15.785Z,245
2017-09-19T10:36:15.440Z,235
2017-09-19T10:37:16.112Z,230
2017-09-19T10:38:16.087Z,230
2017-09-19T10:39:15.428Z,235
2017-09-19T10:40:15.418Z,240
2017-09-19T10:41:15.750Z,255
2017-09-19T10:42:16.071Z,270
2017-09-19T10:43:15.735Z,290
2017-09-19T10:44:16.081Z,290
2017-09-19T10:45:15.728Z,295
2017-09-19T10:46:16.044Z,305
2017-09-19T10:47:16.045Z,305
2017-09-19T10:48:15.722Z,305
2017-09-19T10:49:15.728Z,300
2017-09-19T10:50:16.376Z,310
2017-09-19T10:51:15.698Z,315
2017-09-19T10:52:16.700Z,325
2017-09-19T10:53:16.027Z,330
2017-09-19T10:54:15.679Z,330
2017-09-19T10:55:16.033Z,325
2017-09-19T10:56:15.364Z,325
2017-09-19T10:57:20.837Z,330
2017-09-19T10:58:15.656Z,335
2017-09-19T10:59:15.344Z,340
2017-09-19T11:00:15.333Z,350
2017-09-19T11:01:15.646Z,360
2017-09-19T11:02:15.658Z,365
2017-09-19T11:03:15.335Z,375
2017-09-19T11:04:15.308Z,375
2017-09-19T11:05:15.644Z,375
2017-09-19T11:06:15.623Z,380
2017-09-19T11:07:15.616Z,380
2017-09-19T11:08:16.299Z,380
2017-09-19T11:09:15.963Z,375
2017-09-19T11:10:15.936Z,375
2017-09-19T11:11:15.922Z,370
2017-09-19T11:12:15.914Z,375
2017-09-19T11:13:15.906Z,385
2017-09-19T11:14:15.265Z,390
2017-09-19T11:15:16.272Z,410
2017-09-19T11:16:15.894Z,405
2017-09-19T11:17:15.585Z,410
2017-09-19T11:18:15.559Z,415
2017-09-19T11:19:15.555Z,410
2017-09-19T11:20:15.565Z,405
2017-09-19T11:21:15.237Z,400
2017-09-19T11:22:15.541Z,390
2017-09-19T11:23:15.545Z,395
2017-09-19T11:24:15.222Z,385
2017-09-19T11:25:15.858Z,385
2017-09-19T11:26:15.526Z,385
2017-09-19T11:27:15.200Z,390
2017-09-19T11:28:15.518Z,395
2017-09-19T11:29:15.844Z,400
2017-09-19T11:30:15.527Z,405
2017-09-19T11:31:15.839Z,415
2017-09-19T11:32:15.824Z,420
2017-09-19T11:33:15.508Z,425
2017-09-19T11:34:15.503Z,420
2017-09-19T11:35:15.208Z,420
2017-09-19T11:36:15.807Z,425
2017-09-19T11:37:15.800Z,420
2017-09-19T11:38:15.468Z,420
2017-09-19T11:39:15.470Z,420
2017-09-19T11:40:15.790Z,410
2017-09-19T11:41:15.514Z,400
2017-09-19T11:42:15.517Z,395
2017-09-19T11:43:16.124Z,395
2017-09-19T11:44:15.115Z,390
2017-09-19T11:45:16.112Z,395
2017-09-19T11:46:15.762Z,400
2017-09-19T11:47:15.783Z,395
2017-09-19T11:48:16.082Z,395
2017-09-19T11:49:15.444Z,385
2017-09-19T11:50:15.739Z,365
2017-09-19T11:51:15.080Z,340
2017-09-19T11:52:15.405Z,315
2017-09-19T11:53:15.740Z,300
2017-09-19T11:54:15.091Z,290
2017-09-19T11:55:15.397Z,285
2017-09-19T11:56:15.714Z,285
2017-09-19T11:57:15.386Z,290
2017-09-19T11:58:15.380Z,295
2017-09-19T11:59:15.707Z,300
2017-09-19T12:00:15.064Z,300
2017-09-19T12:01:16.026Z,305
2017-09-19T12:02:15.038Z,315
2017-09-19T12:03:16.036Z,325
2017-09-19T12:04:15.365Z,335
2017-09-19T12:05:15.358Z,345
2017-09-19T12:06:15.022Z,350
2017-09-19T12:07:16.015Z,350
2017-09-19T12:08:15.669Z,350
2017-09-19T12:09:15.006Z,355
2017-09-19T12:10:15.655Z,360
2017-09-19T12:11:15.323Z,365
2017-09-19T12:12:15.643Z,370
2017-09-19T12:13:15.645Z,385
2017-09-19T12:14:14.980Z,390
2017-09-19T12:15:15.645Z,405
2017-09-19T12:16:15.627Z,405
2017-09-19T12:17:14.969Z,405
2017-09-19T12:18:15.625Z,410
2017-09-19T12:19:15.669Z,410
2017-09-19T12:20:15.613Z,405
2017-09-19T12:21:15.605Z,405
2017-09-19T12:22:15.286Z,410
2017-09-19T12:23:14.969Z,415
2017-09-19T12:24:15.924Z,425
2017-09-19T12:25:15.929Z,425
2017-09-19T12:26:15.923Z,410
2017-09-19T12:27:15.587Z,400
2017-09-19T12:28:15.246Z,385
2017-09-19T12:29:15.263Z,360
2017-09-19T12:30:15.576Z,320
2017-09-19T12:31:14.918Z,305
2017-09-19T12:32:15.237Z,285
2017-09-19T12:33:15.227Z,285
2017-09-19T12:34:15.282Z,280
2017-09-19T12:35:15.224Z,275
2017-09-19T12:36:15.881Z,275
2017-09-19T12:37:15.546Z,275
2017-09-19T12:38:15.209Z,300
2017-09-19T12:39:15.222Z,320
2017-09-19T12:40:15.538Z,315
2017-09-19T12:41:15.531Z,310
2017-09-19T12:42:14.868Z,300
2017-09-19T12:43:15.523Z,300
2017-09-19T12:44:15.844Z,295
2017-09-19T12:45:14.852Z,280
2017-09-19T12:46:15.868Z,285
2017-09-19T12:47:15.855Z,285
2017-09-19T12:48:15.826Z,280
2017-09-19T12:49:14.835Z,280
2017-09-19T12:50:15.193Z,275
2017-09-19T12:51:15.160Z,280
2017-09-19T12:52:15.510Z,290
2017-09-19T12:53:15.176Z,295
2017-09-19T12:54:15.159Z,305
2017-09-19T12:55:15.169Z,305
2017-09-19T12:56:15.488Z,285
2017-09-19T12:57:15.475Z,255
2017-09-19T12:58:15.496Z,230
2017-09-19T12:59:14.795Z,210
2017-09-19T13:00:15.776Z,200
2017-09-19T13:01:14.786Z,210
2017-09-19T13:02:16.099Z,220
2017-09-19T13:03:15.109Z,235
2017-09-19T13:04:15.123Z,250
2017-09-19T13:05:15.116Z,255
2017-09-19T13:06:15.424Z,260
2017-09-19T13:07:14.799Z,255
2017-09-19T13:08:14.808Z,250
2017-09-19T13:09:15.407Z,255
2017-09-19T13:10:15.727Z,260
2017-09-19T13:11:15.068Z,275
2017-09-19T13:12:15.067Z,290
2017-09-19T13:13:14.746Z,300
2017-09-19T13:14:15.712Z,315
2017-09-19T13:15:14.720Z,310
2017-09-19T13:16:15.390Z,320
2017-09-19T13:17:15.101Z,325
2017-09-19T13:18:14.718Z,330
2017-09-19T13:19:14.714Z,340
2017-09-19T13:20:15.022Z,330
2017-09-19T13:21:14.706Z,335
2017-09-19T13:22:15.681Z,340
2017-09-19T13:23:14.694Z,340
2017-09-19T13:24:15.340Z,335
2017-09-19T13:25:15.653Z,330
2017-09-19T13:26:14.998Z,330
2017-09-19T13:27:15.187Z,320
2017-09-19T13:28:15.311Z,305
2017-09-19T13:29:15.308Z,295
2017-09-19T13:30:14.998Z,295
2017-09-19T13:31:15.340Z,295
2017-09-19T13:32:15.646Z,295
2017-09-19T13:33:14.980Z,295
2017-09-19T13:34:14.642Z,295
2017-09-19T13:35:14.950Z,295
2017-09-19T13:36:15.272Z,290
2017-09-19T13:37:14.942Z,285
2017-09-19T13:38:14.620Z,280
2017-09-19T13:39:14.623Z,275
2017-09-19T13:40:14.943Z,275
2017-09-19T13:41:14.601Z,270
2017-09-19T13:42:15.245Z,270
2017-09-19T13:43:14.582Z,270
2017-09-19T13:44:14.924Z,270
2017-09-19T13:45:14.921Z,270
2017-09-19T13:46:15.565Z,265
2017-09-19T13:47:14.564Z,265
2017-09-19T13:48:15.213Z,265
2017-09-19T13:49:14.888Z,265
2017-09-19T13:50:14.918Z,265
2017-09-19T13:51:15.227Z,260
2017-09-19T13:52:14.887Z,265
2017-09-19T13:53:15.195Z,265
2017-09-19T13:54:14.879Z,260
2017-09-19T13:55:15.188Z,255
2017-09-19T13:56:15.543Z,250
2017-09-19T13:57:15.166Z,250
2017-09-19T13:58:15.196Z,250
2017-09-19T13:59:15.488Z,260
2017-09-19T14:00:14.836Z,260
2017-09-19T14:01:15.167Z,270
2017-09-19T14:02:15.158Z,265
2017-09-19T14:03:14.834Z,265
2017-09-19T14:04:15.154Z,270
2017-09-19T14:05:14.819Z,280
2017-09-19T14:06:14.477Z,280
2017-09-19T14:07:15.497Z,280
2017-09-19T14:08:14.475Z,280
2017-09-19T14:09:14.475Z,270